Terminal Aerodrome Forecast
Issued by NWS Wilmington, OH

Current Version | Previous Version | Graphics & Text | Print | Product List | Glossary On
Versions: 1 2 3 4 5 6 7 8 9 10 11 12 13 14 15 16 17 18 19 20 21 22 23 24
000
FTUS41 KILN 202110 AAA
TAFCVG
TAF AMD
KCVG 202110Z 2021/2124 24006KT P6SM FEW040 SCT200
     FM210000 VRB03KT P6SM SCT200
     FM210800 VRB03KT 5SM BR SCT250
      TEMPO 2110/2113 3SM BR FEW002
     FM211300 VRB03KT P6SM FEW025 SCT200=

USA.gov is the U.S. government's official web portal to all federal, state and local government web resources and services.